Time;durP1;ratioP1;P1;durP2;ratioP2;P2;SDS_P1;SDS_P2;PMS_P1;PMS_P2;Temp;Humidity;BMP_temperature;BMP_pressure;BME280_temperature;BME280_humidity;BME280_pressure;Samples;Min_cycle;Max_cycle;Signal;HPM_P1;HPM_P2
2023/05/12 00:00:21;;;;;;;16.23;8.88;;;12.50;99.90;;;;;;5026858;28;20453;-74
2023/05/12 00:02:47;;;;;;;15.20;6.93;;;12.50;99.90;;;;;;5012077;28;20371;-82
2023/05/12 00:05:13;;;;;;;14.15;6.43;;;12.50;99.90;;;;;;5011696;28;20469;-82
2023/05/12 00:07:39;;;;;;;14.20;6.22;;;12.50;99.90;;;;;;5010037;28;20022;-78
2023/05/12 00:10:05;;;;;;;11.95;6.28;;;12.50;99.90;;;;;;5011173;28;20458;-84
2023/05/12 00:12:31;;;;;;;12.35;6.32;;;12.50;99.90;;;;;;5011274;28;20072;-79
2023/05/12 00:14:57;;;;;;;17.15;8.63;;;12.50;99.90;;;;;;5015377;28;20053;-74
2023/05/12 00:17:23;;;;;;;20.40;10.57;;;12.40;99.90;;;;;;5029883;28;20026;-78
2023/05/12 00:19:49;;;;;;;19.98;8.80;;;12.40;99.90;;;;;;5011895;28;20081;-79
2023/05/12 00:22:15;;;;;;;18.92;9.07;;;12.40;99.90;;;;;;5011694;28;20470;-84
2023/05/12 00:24:41;;;;;;;10.85;6.20;;;12.40;99.90;;;;;;5011832;28;20041;-80
2023/05/12 00:27:07;;;;;;;11.18;5.85;;;12.40;99.90;;;;;;5012075;28;20389;-82
2023/05/12 00:29:33;;;;;;;14.90;6.55;;;12.40;99.90;;;;;;5010884;28;20045;-82
2023/05/12 00:31:59;;;;;;;10.32;5.78;;;12.50;99.90;;;;;;5009901;28;20077;-81
2023/05/12 00:34:27;;;;;;;12.35;6.28;;;12.50;99.90;;;;;;5026265;28;20033;-81
2023/05/12 00:36:52;;;;;;;11.68;6.38;;;12.50;99.90;;;;;;5011044;28;20401;-75
2023/05/12 00:39:18;;;;;;;13.73;6.10;;;12.50;99.90;;;;;;5010854;28;20026;-82
2023/05/12 00:41:46;;;;;;;11.88;6.18;;;12.50;99.90;;;;;;5025928;28;20056;-84
2023/05/12 00:44:12;;;;;;;16.23;7.55;;;12.50;99.90;;;;;;5010618;28;20045;-84
2023/05/12 00:46:38;;;;;;;13.88;6.80;;;12.50;99.90;;;;;;5010158;28;20474;-80
2023/05/12 00:49:04;;;;;;;12.45;5.95;;;12.50;99.90;;;;;;5010839;28;20018;-83
2023/05/12 00:51:30;;;;;;;12.55;6.28;;;12.50;99.90;;;;;;5026271;28;20048;-84
2023/05/12 00:53:57;;;;;;;17.30;9.48;;;12.50;99.90;;;;;;5011140;28;20018;-84
2023/05/12 00:56:23;;;;;;;15.40;7.72;;;12.50;99.90;;;;;;5026452;28;20029;-83
2023/05/12 00:58:49;;;;;;;15.45;7.78;;;12.50;99.90;;;;;;5011230;28;20112;-83
2023/05/12 01:01:16;;;;;;;15.50;7.80;;;12.50;99.90;;;;;;5029647;28;20397;-81
2023/05/12 01:03:44;;;;;;;13.40;7.35;;;12.50;99.90;;;;;;5029859;28;20105;-80
2023/05/12 01:06:23;;;;;;;18.17;8.95;;;12.50;99.90;;;;;;5029847;28;20030;-82
2023/05/12 01:08:50;;;;;;;13.52;7.03;;;12.40;99.90;;;;;;5014261;28;20057;-77
2023/05/12 01:11:16;;;;;;;19.10;8.40;;;12.40;99.90;;;;;;4996903;28;20088;-77
2023/05/12 01:13:42;;;;;;;16.17;8.20;;;12.50;99.90;;;;;;5029548;28;20068;-79
2023/05/12 01:16:10;;;;;;;16.40;7.97;;;12.50;99.90;;;;;;5019796;28;20034;-75
2023/05/12 01:18:39;;;;;;;15.23;8.10;;;12.40;99.90;;;;;;5014017;28;20060;-81
2023/05/12 01:21:05;;;;;;;14.43;7.75;;;12.40;99.90;;;;;;5029455;28;20064;-84
2023/05/12 01:23:36;;;;;;;15.25;8.63;;;12.40;99.90;;;;;;5030764;28;20095;-81
2023/05/12 01:26:09;;;;;;;15.18;8.32;;;12.40;99.90;;;;;;5012982;28;20425;-75
2023/05/12 01:28:39;;;;;;;19.73;8.88;;;12.40;99.90;;;;;;5035463;28;20529;-76
2023/05/12 01:31:08;;;;;;;21.08;8.80;;;12.50;99.90;;;;;;5029141;28;20041;-81
2023/05/12 01:33:37;;;;;;;17.33;7.35;;;12.50;99.90;;;;;;5012761;28;20053;-76
2023/05/12 01:36:04;;;;;;;19.52;8.05;;;12.40;99.90;;;;;;5016525;28;20034;-83
2023/05/12 01:38:30;;;;;;;16.00;7.82;;;12.50;99.90;;;;;;5016612;28;20026;-81
2023/05/12 01:40:56;;;;;;;13.98;6.18;;;12.50;99.90;;;;;;5013629;28;20515;-80
2023/05/12 01:43:22;;;;;;;18.85;6.43;;;12.50;99.90;;;;;;5013821;28;20592;-82
2023/05/12 01:45:48;;;;;;;18.17;7.32;;;12.50;99.90;;;;;;5028628;28;20022;-83
2023/05/12 01:48:14;;;;;;;11.98;6.50;;;12.50;99.90;;;;;;5029218;28;20084;-81
2023/05/12 01:50:41;;;;;;;14.88;7.15;;;12.50;99.90;;;;;;5013495;28;20037;-81
2023/05/12 01:53:11;;;;;;;13.30;7.40;;;12.50;99.90;;;;;;5028810;28;20054;-73
2023/05/12 01:55:37;;;;;;;18.55;9.15;;;12.50;99.90;;;;;;5013662;28;20032;-83
2023/05/12 01:58:03;;;;;;;18.08;9.50;;;12.50;99.90;;;;;;5012578;28;20033;-83
2023/05/12 02:00:30;;;;;;;19.88;10.65;;;12.40;99.90;;;;;;5012260;28;20500;-82
2023/05/12 02:02:57;;;;;;;17.63;8.43;;;12.40;99.90;;;;;;5028568;28;20028;-84
2023/05/12 02:05:23;;;;;;;21.48;8.90;;;12.50;99.90;;;;;;5028928;28;20037;-82
2023/05/12 02:07:49;;;;;;;19.55;9.52;;;12.50;99.90;;;;;;5012759;28;20623;-81
2023/05/12 02:10:16;;;;;;;16.48;8.55;;;12.40;99.90;;;;;;5012264;28;20077;-80
2023/05/12 02:12:43;;;;;;;19.52;8.98;;;12.40;99.90;;;;;;5028297;28;20125;-81
2023/05/12 02:15:09;;;;;;;10.55;5.68;;;12.40;99.90;;;;;;5016508;28;20022;-81
2023/05/12 02:17:38;;;;;;;21.73;8.10;;;12.40;99.90;;;;;;5028117;28;20040;-84
2023/05/12 02:20:06;;;;;;;19.77;8.95;;;12.40;99.90;;;;;;5011706;28;20025;-83
2023/05/12 02:22:31;;;;;;;16.88;7.00;;;12.40;99.90;;;;;;5028189;28;20025;-80
2023/05/12 02:24:58;;;;;;;13.77;6.53;;;12.50;99.90;;;;;;5028503;28;20050;-77
2023/05/12 02:27:24;;;;;;;17.33;7.38;;;12.40;99.90;;;;;;5028317;28;20437;-77
2023/05/12 02:29:50;;;;;;;10.55;6.10;;;12.50;99.90;;;;;;5027715;28;20033;-83
2023/05/12 02:32:17;;;;;;;11.48;4.80;;;12.50;99.90;;;;;;5028188;28;20030;-78
2023/05/12 02:34:46;;;;;;;8.70;5.38;;;12.50;99.90;;;;;;5027943;28;20098;-82
2023/05/12 02:37:12;;;;;;;10.93;6.18;;;12.60;99.90;;;;;;5011553;28;20022;-81
2023/05/12 02:39:38;;;;;;;14.32;6.55;;;12.60;99.90;;;;;;5012312;28;20449;-84
2023/05/12 02:42:05;;;;;;;15.32;7.13;;;12.70;99.90;;;;;;5011411;28;20026;-82
2023/05/12 02:44:31;;;;;;;12.88;6.88;;;12.60;99.90;;;;;;5011206;28;20036;-78
2023/05/12 02:46:57;;;;;;;12.60;5.80;;;12.60;99.90;;;;;;5011141;28;20025;-73
2023/05/12 02:49:22;;;;;;;15.93;7.75;;;12.60;99.90;;;;;;5027811;28;20022;-74
2023/05/12 02:51:49;;;;;;;14.25;7.10;;;12.60;99.90;;;;;;5027645;28;20124;-82
2023/05/12 02:54:15;;;;;;;15.43;7.63;;;12.60;99.90;;;;;;5012381;28;20018;-84
2023/05/12 02:56:41;;;;;;;16.42;7.65;;;12.50;99.90;;;;;;5012156;28;20099;-82
2023/05/12 02:59:06;;;;;;;12.15;7.63;;;12.50;99.90;;;;;;5027729;28;20026;-81
2023/05/12 03:01:32;;;;;;;13.38;6.60;;;12.50;99.90;;;;;;5010724;28;20605;-81
2023/05/12 03:03:58;;;;;;;11.23;6.57;;;12.50;99.90;;;;;;5027489;28;20112;-83
2023/05/12 03:06:27;;;;;;;16.67;7.57;;;12.50;99.90;;;;;;5012113;28;20025;-78
2023/05/12 03:08:54;;;;;;;12.48;6.82;;;12.50;99.90;;;;;;5010756;28;20100;-83
2023/05/12 03:11:21;;;;;;;13.05;7.07;;;12.50;99.90;;;;;;5027290;28;20034;-81
2023/05/12 03:13:47;;;;;;;11.55;7.20;;;12.50;99.90;;;;;;5010513;28;20540;-76
2023/05/12 03:16:15;;;;;;;15.85;7.80;;;12.50;99.90;;;;;;5016058;28;20386;-85
2023/05/12 03:18:42;;;;;;;13.48;6.88;;;12.50;99.90;;;;;;5010795;28;20049;-84
2023/05/12 03:21:08;;;;;;;14.30;7.65;;;12.50;99.90;;;;;;5012157;28;20037;-81
2023/05/12 03:23:35;;;;;;;14.40;7.55;;;12.50;99.90;;;;;;5011663;28;20014;-83
2023/05/12 03:26:01;;;;;;;12.98;7.25;;;12.60;99.90;;;;;;5027303;28;20025;-80
2023/05/12 03:28:28;;;;;;;14.30;7.25;;;12.60;99.90;;;;;;5010686;28;20065;-74
2023/05/12 03:30:54;;;;;;;15.88;8.23;;;12.60;99.90;;;;;;5026901;28;20439;-83
2023/05/12 03:33:20;;;;;;;19.55;7.18;;;12.60;99.90;;;;;;5027114;28;20109;-78
2023/05/12 03:35:46;;;;;;;16.00;7.43;;;12.60;99.90;;;;;;5026975;28;20030;-85
2023/05/12 03:38:12;;;;;;;16.73;6.47;;;12.60;99.90;;;;;;5027209;28;20025;-86
2023/05/12 03:40:38;;;;;;;16.63;6.82;;;12.60;99.90;;;;;;5029244;28;20369;-86
2023/05/12 03:43:03;;;;;;;11.93;6.78;;;12.60;99.90;;;;;;5029909;28;20477;-80
2023/05/12 03:45:29;;;;;;;12.93;6.22;;;12.60;99.90;;;;;;5027738;28;20033;-77
2023/05/12 03:47:55;;;;;;;11.60;6.38;;;12.60;99.90;;;;;;5022427;28;20032;-84
2023/05/12 03:50:21;;;;;;;13.63;6.93;;;12.60;99.90;;;;;;5022635;28;20478;-72
2023/05/12 03:52:47;;;;;;;11.65;6.50;;;12.60;99.90;;;;;;5025158;28;20428;-87
2023/05/12 03:55:13;;;;;;;10.77;6.28;;;12.60;99.90;;;;;;5023677;28;20053;-89
2023/05/12 03:57:39;;;;;;;12.85;6.50;;;12.60;99.90;;;;;;5018493;28;20033;-84
2023/05/12 04:00:05;;;;;;;12.25;6.07;;;12.60;99.90;;;;;;5019631;28;20121;-86
2023/05/12 04:02:38;;;;;;;12.02;7.18;;;12.70;99.90;;;;;;5025340;28;20049;-74
2023/05/12 04:05:07;;;;;;;12.02;6.80;;;12.70;99.90;;;;;;5022805;28;20022;-86
2023/05/12 04:07:33;;;;;;;12.95;6.97;;;12.70;99.90;;;;;;5031805;28;20023;-80
2023/05/12 04:09:59;;;;;;;13.20;6.43;;;12.80;99.90;;;;;;5031180;28;20055;-75
2023/05/12 04:12:25;;;;;;;12.60;6.75;;;12.80;99.90;;;;;;5031574;28;20045;-74
2023/05/12 04:14:51;;;;;;;9.38;6.38;;;12.80;99.90;;;;;;5046445;28;20029;-83
2023/05/12 04:17:18;;;;;;;9.82;6.18;;;12.90;99.90;;;;;;5017963;28;20033;-83
2023/05/12 04:19:45;;;;;;;11.82;7.25;;;12.90;99.90;;;;;;5026923;28;20030;-78
2023/05/12 04:22:11;;;;;;;12.10;6.65;;;12.90;99.90;;;;;;5026894;28;20027;-87
2023/05/12 04:24:37;;;;;;;14.52;7.30;;;12.90;99.90;;;;;;5032103;28;20096;-84
2023/05/12 04:27:04;;;;;;;13.73;6.95;;;13.00;99.90;;;;;;5047427;28;20025;-82
2023/05/12 04:29:30;;;;;;;13.57;6.90;;;13.00;99.90;;;;;;5047271;28;20025;-73
2023/05/12 04:31:56;;;;;;;12.90;6.95;;;13.00;99.90;;;;;;5029810;28;20033;-83
2023/05/12 04:34:22;;;;;;;12.65;7.18;;;13.00;99.90;;;;;;5045743;28;20025;-83
2023/05/12 04:36:48;;;;;;;10.20;5.88;;;13.10;99.90;;;;;;5031890;28;20022;-74
2023/05/12 04:39:14;;;;;;;17.05;7.32;;;13.10;99.90;;;;;;5047008;28;20159;-84
2023/05/12 04:41:40;;;;;;;9.77;6.13;;;13.10;99.90;;;;;;5031574;28;20024;-84
2023/05/12 04:44:06;;;;;;;15.63;6.72;;;13.10;99.90;;;;;;5047046;28;20036;-81
2023/05/12 04:46:32;;;;;;;11.90;6.93;;;13.10;99.90;;;;;;5046831;28;20108;-84
2023/05/12 04:48:59;;;;;;;11.23;6.82;;;13.20;99.90;;;;;;5047398;28;20037;-78
2023/05/12 04:51:25;;;;;;;11.68;6.15;;;13.20;99.90;;;;;;5046590;28;20042;-82
2023/05/12 04:53:50;;;;;;;11.13;6.82;;;13.20;99.90;;;;;;5047053;28;20040;-80
2023/05/12 04:56:17;;;;;;;11.98;6.97;;;13.20;99.90;;;;;;5029787;28;20040;-77
2023/05/12 04:58:44;;;;;;;15.48;6.97;;;13.20;99.90;;;;;;5030445;28;20083;-84
2023/05/12 05:01:12;;;;;;;12.57;6.82;;;13.30;99.90;;;;;;5030049;28;20049;-81
2023/05/12 05:03:39;;;;;;;12.15;7.97;;;13.30;99.90;;;;;;5014158;28;20029;-84
2023/05/12 05:06:05;;;;;;;10.90;7.18;;;13.30;99.90;;;;;;5029925;28;20060;-74
2023/05/12 05:08:31;;;;;;;11.15;6.60;;;13.30;99.90;;;;;;5029879;28;20049;-80
2023/05/12 05:10:57;;;;;;;12.27;6.78;;;13.30;99.90;;;;;;5031195;28;20041;-74
2023/05/12 05:13:24;;;;;;;12.93;6.78;;;13.40;99.90;;;;;;5030203;28;20104;-74
2023/05/12 05:15:52;;;;;;;11.68;6.25;;;13.40;99.90;;;;;;5046641;28;20030;-83
2023/05/12 05:18:19;;;;;;;10.45;5.95;;;13.50;99.90;;;;;;5028889;28;20025;-85
2023/05/12 05:20:44;;;;;;;11.73;6.63;;;13.60;99.90;;;;;;5029981;28;20030;-84
2023/05/12 05:23:11;;;;;;;14.65;7.90;;;13.60;99.90;;;;;;5046664;28;20029;-83
2023/05/12 05:25:38;;;;;;;11.27;6.70;;;13.70;99.90;;;;;;5030143;28;20026;-83
2023/05/12 05:28:04;;;;;;;14.50;7.07;;;13.70;99.90;;;;;;5029858;28;20492;-81
2023/05/12 05:30:31;;;;;;;10.18;6.82;;;13.70;99.90;;;;;;5046566;28;20180;-80
2023/05/12 05:32:57;;;;;;;10.85;6.97;;;13.70;99.90;;;;;;5029796;28;20056;-82
2023/05/12 05:35:23;;;;;;;11.38;5.78;;;13.70;99.90;;;;;;5046547;28;20473;-74
2023/05/12 05:37:52;;;;;;;15.23;6.65;;;13.70;99.90;;;;;;5045629;28;20033;-81
2023/05/12 05:40:18;;;;;;;17.58;6.95;;;13.70;99.90;;;;;;5029360;28;20041;-81
2023/05/12 05:42:44;;;;;;;15.23;7.43;;;13.80;99.90;;;;;;5031110;28;20025;-82
2023/05/12 05:45:10;;;;;;;12.43;6.47;;;13.80;99.90;;;;;;5029594;28;20026;-84
2023/05/12 05:47:37;;;;;;;12.93;6.57;;;13.70;99.90;;;;;;5032785;28;20017;-84
2023/05/12 05:50:05;;;;;;;10.80;6.32;;;13.70;99.90;;;;;;5048275;28;20029;-80
2023/05/12 05:52:33;;;;;;;10.43;6.32;;;13.80;99.90;;;;;;5049682;28;20025;-77
2023/05/12 05:55:00;;;;;;;15.90;7.68;;;13.80;99.90;;;;;;5033202;28;20080;-84
2023/05/12 05:57:27;;;;;;;13.27;7.47;;;13.80;99.90;;;;;;5032886;28;20021;-72
2023/05/12 05:59:55;;;;;;;13.75;7.32;;;13.80;99.90;;;;;;5032560;28;20157;-83
2023/05/12 06:02:23;;;;;;;13.25;7.70;;;13.80;99.90;;;;;;5034537;28;20116;-73
2023/05/12 06:04:49;;;;;;;12.43;6.50;;;13.70;99.90;;;;;;5034400;28;20039;-78
2023/05/12 06:07:15;;;;;;;14.82;7.55;;;13.70;99.90;;;;;;5028780;28;20104;-82
2023/05/12 06:09:42;;;;;;;12.95;7.70;;;13.70;99.90;;;;;;5011696;28;20544;-81
2023/05/12 06:12:08;;;;;;;11.63;6.90;;;13.70;99.90;;;;;;5022565;28;20045;-73
2023/05/12 06:14:33;;;;;;;16.58;8.20;;;13.50;99.90;;;;;;5039469;28;20084;-74
2023/05/12 06:16:59;;;;;;;14.13;7.88;;;13.50;99.90;;;;;;5032945;28;20436;-75
2023/05/12 06:19:25;;;;;;;15.32;7.40;;;13.40;99.90;;;;;;5023307;28;20017;-80
2023/05/12 06:21:51;;;;;;;14.80;8.77;;;13.40;99.90;;;;;;5034399;28;20029;-72
2023/05/12 06:24:17;;;;;;;13.88;8.80;;;13.30;99.90;;;;;;5033125;28;20062;-76
2023/05/12 06:26:43;;;;;;;15.95;8.27;;;13.30;99.90;;;;;;5028988;28;20073;-79
2023/05/12 06:29:09;;;;;;;12.95;7.85;;;13.30;99.90;;;;;;5026377;28;20026;-80
2023/05/12 06:31:35;;;;;;;13.10;8.05;;;13.30;99.90;;;;;;5029218;28;20046;-74
2023/05/12 06:34:01;;;;;;;14.13;8.05;;;13.20;99.90;;;;;;5027825;28;20026;-77
2023/05/12 06:36:28;;;;;;;11.40;7.70;;;13.20;99.90;;;;;;5055041;28;20473;-79
2023/05/12 06:38:55;;;;;;;15.50;8.10;;;13.20;99.90;;;;;;5032594;28;20034;-80
2023/05/12 06:41:23;;;;;;;14.00;8.35;;;13.20;99.90;;;;;;5025105;28;20041;-79
2023/05/12 06:43:50;;;;;;;16.75;8.95;;;13.20;99.90;;;;;;5039790;28;20037;-79
2023/05/12 06:46:16;;;;;;;14.52;8.73;;;13.20;99.90;;;;;;5033580;28;20546;-79
2023/05/12 06:48:43;;;;;;;13.60;9.15;;;13.30;99.90;;;;;;5033856;28;20048;-74
2023/05/12 06:51:09;;;;;;;16.30;7.97;;;13.30;99.90;;;;;;5031552;28;20091;-77
2023/05/12 06:53:38;;;;;;;13.55;8.98;;;13.30;99.90;;;;;;5033689;28;20018;-79
2023/05/12 06:56:04;;;;;;;14.95;9.23;;;13.30;99.90;;;;;;5033505;28;20037;-78
2023/05/12 06:58:30;;;;;;;15.15;9.40;;;13.30;99.90;;;;;;5033312;28;20021;-79
2023/05/12 07:00:56;;;;;;;16.00;9.10;;;13.40;99.90;;;;;;5033371;28;20465;-79
2023/05/12 07:03:22;;;;;;;16.23;8.68;;;13.40;99.90;;;;;;5033584;28;20469;-82
2023/05/12 07:05:48;;;;;;;16.38;9.15;;;13.50;99.90;;;;;;5033310;28;20025;-74
2023/05/12 07:08:14;;;;;;;17.60;10.15;;;13.50;99.90;;;;;;5033168;28;20090;-80
2023/05/12 07:10:40;;;;;;;13.23;8.05;;;13.50;99.90;;;;;;5033400;28;20045;-74
2023/05/12 07:13:06;;;;;;;17.27;9.55;;;13.50;99.90;;;;;;5031900;28;20037;-80
2023/05/12 07:15:32;;;;;;;18.38;9.85;;;13.50;99.90;;;;;;5033292;28;20022;-75
2023/05/12 07:17:58;;;;;;;14.18;8.88;;;13.50;99.90;;;;;;5033022;28;20022;-79
2023/05/12 07:20:23;;;;;;;17.75;10.38;;;13.40;99.90;;;;;;5031788;28;20539;-81
2023/05/12 07:22:51;;;;;;;15.77;9.40;;;13.30;99.90;;;;;;5033157;28;20041;-79
2023/05/12 07:25:17;;;;;;;16.98;9.85;;;13.30;99.90;;;;;;5033025;28;20013;-82
2023/05/12 07:27:43;;;;;;;17.55;10.25;;;13.30;99.90;;;;;;5032724;28;20049;-82
2023/05/12 07:30:10;;;;;;;17.02;9.40;;;13.30;99.90;;;;;;5032893;28;20022;-73
2023/05/12 07:32:36;;;;;;;15.98;8.50;;;13.30;99.90;;;;;;5032573;28;20037;-73
2023/05/12 07:35:02;;;;;;;14.00;9.35;;;13.40;99.90;;;;;;5031522;28;20020;-73
2023/05/12 07:37:28;;;;;;;15.50;9.40;;;13.40;99.90;;;;;;5032954;28;20398;-82
2023/05/12 07:39:54;;;;;;;14.27;8.20;;;13.30;99.90;;;;;;5032541;28;20029;-73
2023/05/12 07:42:21;;;;;;;13.48;8.90;;;13.30;99.90;;;;;;5032994;28;20476;-74
2023/05/12 07:44:47;;;;;;;13.35;7.80;;;13.20;99.90;;;;;;5032870;28;20033;-73
2023/05/12 07:47:13;;;;;;;11.43;7.65;;;13.20;99.90;;;;;;5032724;28;20026;-77
2023/05/12 07:49:39;;;;;;;14.63;7.80;;;13.20;99.90;;;;;;5032599;28;20033;-79
2023/05/12 07:52:05;;;;;;;14.82;8.95;;;13.20;99.90;;;;;;5032748;28;20107;-74
2023/05/12 07:54:31;;;;;;;14.82;8.95;;;13.20;99.90;;;;;;5031136;28;20482;-72
2023/05/12 07:56:57;;;;;;;12.82;8.13;;;13.30;99.90;;;;;;5032654;28;20033;-81
2023/05/12 07:59:23;;;;;;;11.65;7.47;;;13.20;99.90;;;;;;5014995;28;20491;-81
2023/05/12 08:01:48;;;;;;;17.02;9.10;;;13.30;99.90;;;;;;5032051;28;20112;-82
2023/05/12 08:04:14;;;;;;;16.38;9.02;;;13.40;99.90;;;;;;5047702;28;20033;-82
2023/05/12 08:06:40;;;;;;;14.95;8.70;;;13.40;99.90;;;;;;5032281;28;20469;-83
2023/05/12 08:09:06;;;;;;;14.55;8.65;;;13.60;99.90;;;;;;5031648;28;20478;-84
2023/05/12 08:11:32;;;;;;;13.63;8.05;;;13.60;99.90;;;;;;5032574;28;20385;-79
2023/05/12 08:13:57;;;;;;;13.43;8.15;;;13.70;99.90;;;;;;5032235;28;20028;-84
2023/05/12 08:16:23;;;;;;;13.93;8.60;;;13.70;99.90;;;;;;5031960;28;20078;-82
2023/05/12 08:18:49;;;;;;;16.50;8.07;;;13.80;99.90;;;;;;5032026;28;20036;-84
2023/05/12 08:21:15;;;;;;;11.30;7.20;;;13.90;99.90;;;;;;5032248;28;20029;-82
2023/05/12 08:23:41;;;;;;;13.30;8.60;;;13.80;99.90;;;;;;5032074;28;20469;-84
2023/05/12 08:26:06;;;;;;;14.95;8.57;;;14.00;99.90;;;;;;5032378;28;20108;-84
2023/05/12 08:28:33;;;;;;;13.55;8.73;;;14.20;99.90;;;;;;5032009;28;20462;-82
2023/05/12 08:30:58;;;;;;;17.52;8.70;;;14.30;99.90;;;;;;5032030;28;20109;-84
2023/05/12 08:33:24;;;;;;;14.40;8.88;;;14.30;99.90;;;;;;5031840;28;20040;-84
2023/05/12 08:35:51;;;;;;;12.77;8.00;;;14.20;99.90;;;;;;5031031;28;20025;-85
2023/05/12 08:38:17;;;;;;;15.05;7.88;;;14.20;99.90;;;;;;5031955;28;20473;-84
2023/05/12 08:41:13;;;;;;;12.85;8.20;;;14.20;99.90;;;;;;5032017;28;20026;-83
2023/05/12 08:43:51;;;;;;;13.77;9.13;;;14.10;99.90;;;;;;5022299;28;20026;-81
2023/05/12 08:46:18;;;;;;;11.68;7.55;;;14.10;99.90;;;;;;5030308;28;20465;-85
2023/05/12 08:48:49;;;;;;;14.27;7.93;;;14.10;99.90;;;;;;5030590;28;20049;-84
2023/05/12 08:51:17;;;;;;;12.60;7.85;;;14.20;99.90;;;;;;5031589;28;20091;-83
2023/05/12 08:53:46;;;;;;;12.13;8.63;;;14.20;99.90;;;;;;5031691;28;20481;-84
2023/05/12 08:56:14;;;;;;;12.73;8.25;;;14.20;99.90;;;;;;5031651;28;20022;-81
2023/05/12 08:58:43;;;;;;;12.15;7.70;;;14.10;99.90;;;;;;5031472;28;20108;-81
2023/05/12 09:01:10;;;;;;;12.55;8.10;;;14.10;99.90;;;;;;5031786;28;20035;-81
2023/05/12 09:03:36;;;;;;;13.23;8.10;;;14.00;99.90;;;;;;5031597;28;20395;-78
2023/05/12 09:06:05;;;;;;;13.60;7.18;;;14.00;99.90;;;;;;5031906;28;20108;-82
2023/05/12 09:08:33;;;;;;;15.02;8.25;;;14.00;99.90;;;;;;5031064;28;20509;-82
2023/05/12 09:11:00;;;;;;;12.60;7.25;;;14.10;99.90;;;;;;5031676;28;20144;-86
2023/05/12 09:13:34;;;;;;;14.57;7.70;;;14.20;99.90;;;;;;5032002;28;20128;-85
2023/05/12 09:16:02;;;;;;;12.75;7.80;;;14.10;99.90;;;;;;5031548;28;20033;-80
2023/05/12 09:18:47;;;;;;;10.75;6.70;;;14.30;99.90;;;;;;5031810;28;20045;-82
2023/05/12 09:21:13;;;;;;;14.45;7.90;;;14.20;99.90;;;;;;5034508;28;20148;-82
2023/05/12 09:23:39;;;;;;;10.63;6.53;;;14.20;99.90;;;;;;5035349;28;20090;-80
2023/05/12 09:26:05;;;;;;;10.70;6.20;;;14.20;99.90;;;;;;5035529;28;20029;-83
2023/05/12 09:28:37;;;;;;;13.90;7.13;;;14.30;99.90;;;;;;5035263;28;20071;-75
2023/05/12 09:31:23;;;;;;;11.07;6.15;;;14.40;99.90;;;;;;5035218;28;20091;-84
2023/05/12 09:33:50;;;;;;;11.93;7.28;;;14.30;99.90;;;;;;5033893;28;20041;-81
2023/05/12 09:36:17;;;;;;;9.98;6.13;;;14.20;99.90;;;;;;5023748;28;20105;-74
2023/05/12 09:38:43;;;;;;;11.65;6.68;;;14.30;99.90;;;;;;5035310;28;20041;-83
2023/05/12 09:41:08;;;;;;;7.75;4.82;;;14.30;99.90;;;;;;5035159;28;20025;-85
2023/05/12 09:43:34;;;;;;;9.52;5.05;;;14.50;99.90;;;;;;5035270;28;20032;-72
2023/05/12 09:46:06;;;;;;;9.43;5.72;;;14.60;99.90;;;;;;5034807;28;20030;-76
2023/05/12 09:48:32;;;;;;;9.75;5.00;;;14.60;99.90;;;;;;5035313;28;20053;-79
2023/05/12 09:50:58;;;;;;;7.38;4.43;;;14.90;99.90;;;;;;5035319;28;20025;-82
2023/05/12 09:53:25;;;;;;;7.40;4.50;;;15.00;99.90;;;;;;5034976;28;20506;-74
2023/05/12 09:55:51;;;;;;;7.97;4.43;;;15.40;99.90;;;;;;5034796;28;20014;-74
2023/05/12 09:58:18;;;;;;;7.95;4.78;;;15.90;99.90;;;;;;5034583;28;20044;-80
2023/05/12 10:00:45;;;;;;;7.32;4.55;;;16.20;99.90;;;;;;5035082;28;20159;-82
2023/05/12 10:03:16;;;;;;;9.27;4.38;;;16.30;99.90;;;;;;5034643;28;20053;-79
2023/05/12 10:05:52;;;;;;;7.53;4.63;;;16.30;99.90;;;;;;5035034;28;20030;-83
2023/05/12 10:08:37;;;;;;;5.60;4.38;;;16.70;99.90;;;;;;5034805;28;20128;-86
2023/05/12 10:11:04;;;;;;;7.25;4.25;;;16.20;99.90;;;;;;5033372;28;20052;-84
2023/05/12 10:13:32;;;;;;;7.55;4.53;;;16.40;99.90;;;;;;5035265;28;20028;-79
2023/05/12 10:15:59;;;;;;;7.53;4.63;;;16.60;99.90;;;;;;5034453;28;20029;-83
2023/05/12 10:18:25;;;;;;;15.55;5.15;;;16.50;99.90;;;;;;5034410;28;20446;-84
2023/05/12 10:20:52;;;;;;;7.40;4.43;;;16.70;99.90;;;;;;5034671;28;20362;-85
2023/05/12 10:23:20;;;;;;;6.78;4.07;;;16.80;99.90;;;;;;5034519;28;20026;-84
2023/05/12 10:25:46;;;;;;;9.35;4.95;;;16.50;99.90;;;;;;5034561;28;20095;-83
2023/05/12 10:28:12;;;;;;;7.15;4.25;;;16.80;99.90;;;;;;5034089;28;20079;-83
2023/05/12 10:30:40;;;;;;;6.95;4.32;;;16.80;99.90;;;;;;5033310;28;20045;-82
2023/05/12 10:33:10;;;;;;;8.50;4.20;;;16.90;99.90;;;;;;5032266;28;20045;-79
2023/05/12 10:35:37;;;;;;;6.38;4.13;;;17.30;99.90;;;;;;5034636;28;20022;-82
2023/05/12 10:38:10;;;;;;;7.13;4.00;;;17.30;99.90;;;;;;5033981;28;20056;-86
2023/05/12 10:40:48;;;;;;;9.07;4.20;;;17.30;99.90;;;;;;5034463;28;20047;-87
2023/05/12 10:43:24;;;;;;;7.18;3.78;;;16.80;99.90;;;;;;5034766;28;20128;-82
2023/05/12 10:46:11;;;;;;;5.50;3.78;;;16.50;99.90;;;;;;5033612;28;20037;-74
2023/05/12 10:48:56;;;;;;;7.68;4.38;;;16.30;99.90;;;;;;5033974;28;20071;-81
2023/05/12 10:51:30;;;;;;;7.10;4.28;;;16.30;99.90;;;;;;5021742;28;20038;-85
2023/05/12 10:54:04;;;;;;;8.93;4.20;;;16.10;99.90;;;;;;5033322;28;20031;-85
2023/05/12 10:56:37;;;;;;;6.78;3.70;;;16.00;99.90;;;;;;5032521;28;20445;-81
2023/05/12 10:59:15;;;;;;;5.75;3.78;;;16.00;99.90;;;;;;5048992;28;20060;-86
2023/05/12 11:01:54;;;;;;;23.60;5.43;;;16.00;99.90;;;;;;5033643;28;20073;-79
2023/05/12 11:04:21;;;;;;;8.90;4.22;;;16.20;99.90;;;;;;5049063;28;20036;-81
2023/05/12 11:06:58;;;;;;;8.52;4.55;;;16.30;99.90;;;;;;5033284;28;20025;-75
2023/05/12 11:09:24;;;;;;;7.70;4.10;;;16.40;99.90;;;;;;5032059;28;20041;-81
2023/05/12 11:11:50;;;;;;;10.45;4.53;;;16.40;99.90;;;;;;5033158;28;20053;-85
2023/05/12 11:14:16;;;;;;;8.68;4.63;;;16.60;99.90;;;;;;5033380;28;20056;-86
2023/05/12 11:16:45;;;;;;;10.98;5.93;;;16.50;99.90;;;;;;5032509;28;20033;-79
2023/05/12 11:19:11;;;;;;;11.65;5.72;;;16.40;99.90;;;;;;5028391;28;20446;-87
2023/05/12 11:21:37;;;;;;;8.38;4.93;;;16.50;99.90;;;;;;5033258;28;20022;-86
2023/05/12 11:24:03;;;;;;;10.23;4.80;;;16.60;99.90;;;;;;5032832;28;20060;-81
2023/05/12 11:26:29;;;;;;;8.38;4.57;;;16.60;99.90;;;;;;5033043;28;20029;-77
2023/05/12 11:29:01;;;;;;;10.02;5.13;;;16.60;99.90;;;;;;5035042;28;20083;-82
2023/05/12 11:31:27;;;;;;;9.95;5.32;;;16.70;99.90;;;;;;5032912;28;20492;-82
2023/05/12 11:34:07;;;;;;;9.55;4.38;;;16.70;99.90;;;;;;5032798;28;20026;-85
2023/05/12 11:36:37;;;;;;;9.30;4.75;;;16.70;99.90;;;;;;5033839;28;20026;-73
2023/05/12 11:39:05;;;;;;;8.48;4.55;;;16.60;99.90;;;;;;5032061;28;20032;-82
2023/05/12 11:41:30;;;;;;;7.28;4.45;;;16.60;99.90;;;;;;5025215;28;20401;-86
2023/05/12 11:43:56;;;;;;;9.68;4.90;;;16.60;99.90;;;;;;5031817;28;20045;-86
2023/05/12 11:46:26;;;;;;;9.98;4.28;;;16.60;99.90;;;;;;5032395;28;20429;-82
2023/05/12 11:48:57;;;;;;;7.03;4.00;;;16.70;99.90;;;;;;5032319;28;20026;-78
2023/05/12 11:51:24;;;;;;;11.45;5.40;;;16.60;99.90;;;;;;5039901;28;20502;-84
2023/05/12 11:53:54;;;;;;;10.48;4.85;;;16.50;99.90;;;;;;5012361;28;20132;-77
2023/05/12 11:56:22;;;;;;;7.82;4.25;;;16.40;99.90;;;;;;5034952;28;20036;-84
2023/05/12 11:58:55;;;;;;;11.02;4.38;;;16.30;99.90;;;;;;5021346;28;20029;-85
2023/05/12 12:01:22;;;;;;;8.18;4.60;;;16.50;99.90;;;;;;5031798;28;20030;-74
2023/05/12 12:03:50;;;;;;;12.88;5.20;;;16.50;99.90;;;;;;5033809;28;20120;-86
2023/05/12 12:06:17;;;;;;;10.93;4.75;;;16.30;99.90;;;;;;5032582;28;20048;-74
2023/05/12 12:08:52;;;;;;;8.75;4.55;;;16.10;99.90;;;;;;5030814;28;20046;-81
2023/05/12 12:11:20;;;;;;;8.90;4.85;;;16.00;99.90;;;;;;5032128;28;20497;-85
2023/05/12 12:13:55;;;;;;;12.02;5.70;;;16.00;99.90;;;;;;5032639;28;20055;-73
2023/05/12 12:16:25;;;;;;;7.20;4.68;;;16.10;99.90;;;;;;5018098;28;20022;-73
2023/05/12 12:18:52;;;;;;;9.70;4.95;;;15.90;99.90;;;;;;5022360;28;20116;-74
2023/05/12 12:21:20;;;;;;;9.80;5.60;;;16.00;99.90;;;;;;5035743;28;20384;-73
2023/05/12 12:23:46;;;;;;;8.43;4.82;;;16.00;99.90;;;;;;5039180;28;20079;-73
2023/05/12 12:26:15;;;;;;;14.57;5.40;;;15.90;99.90;;;;;;5032547;28;20018;-86
2023/05/12 12:28:44;;;;;;;9.45;4.78;;;16.00;99.90;;;;;;5032268;28;20033;-75
2023/05/12 12:31:10;;;;;;;7.80;4.65;;;16.10;99.90;;;;;;5019189;28;20046;-76
2023/05/12 12:33:36;;;;;;;10.15;4.85;;;16.20;99.90;;;;;;5032083;28;20040;-82
2023/05/12 12:36:02;;;;;;;7.03;4.10;;;16.10;99.90;;;;;;5032401;28;20025;-74
2023/05/12 12:38:28;;;;;;;15.02;4.75;;;16.10;99.90;;;;;;5033132;28;20465;-85